Time;durP1;ratioP1;P1;durP2;ratioP2;P2;SDS_P1;SDS_P2;PMS_P1;PMS_P2;Temp;Humidity;BMP_temperature;BMP_pressure;BME280_temperature;BME280_humidity;BME280_pressure;Samples;Min_cycle;Max_cycle;Signal;HPM_P1;HPM_P2
2022/01/03 00:00:50;;;;;;;23.58;5.05;;;;;;;9.65;100.00;101136.81;5277719;28;20053;-85
2022/01/03 00:03:22;;;;;;;22.00;5.40;;;;;;;9.45;100.00;101134.03;5278832;28;20053;-85
2022/01/03 00:05:54;;;;;;;31.58;4.88;;;;;;;9.44;100.00;101139.47;5276765;28;20497;-84
2022/01/03 00:08:28;;;;;;;15.93;3.58;;;;;;;9.39;100.00;101147.81;5288903;28;20016;-84
2022/01/03 00:11:00;;;;;;;21.63;4.10;;;;;;;9.43;100.00;101138.63;5292358;28;20025;-84
2022/01/03 00:13:31;;;;;;;26.45;5.43;;;;;;;9.39;100.00;101147.00;5288686;28;20028;-84
2022/01/03 00:16:02;;;;;;;22.48;4.28;;;;;;;9.27;100.00;101147.06;5287681;28;20021;-84
2022/01/03 00:18:34;;;;;;;22.42;4.75;;;;;;;9.23;100.00;101160.72;5287282;28;20025;-84
2022/01/03 00:21:14;;;;;;;29.75;5.75;;;;;;;9.28;100.00;101161.19;5288778;28;20051;-85
2022/01/03 00:24:04;;;;;;;21.00;4.65;;;;;;;9.41;100.00;101164.53;5295603;28;20033;-84
2022/01/03 00:26:37;;;;;;;26.00;5.43;;;;;;;9.41;100.00;101163.69;5284744;28;20021;-85
2022/01/03 00:29:18;;;;;;;21.40;4.75;;;;;;;9.63;100.00;101155.59;5285927;28;20118;-84
2022/01/03 00:31:52;;;;;;;22.15;5.30;;;;;;;9.53;100.00;101168.00;5290533;28;20052;-84
2022/01/03 00:34:27;;;;;;;22.23;4.85;;;;;;;9.66;100.00;101165.16;5297432;28;20035;-84
2022/01/03 00:36:59;;;;;;;27.42;5.90;;;;;;;9.62;100.00;101161.91;5304941;28;20032;-85
2022/01/03 00:39:31;;;;;;;29.65;4.93;;;;;;;9.58;100.00;101173.78;5305580;28;20025;-85
2022/01/03 00:42:03;;;;;;;18.98;5.45;;;;;;;9.75;100.00;101164.38;5287316;28;20116;-85
2022/01/03 00:44:34;;;;;;;23.75;4.90;;;;;;;9.69;100.00;101166.72;5284758;28;20431;-85
2022/01/03 00:47:06;;;;;;;27.13;4.95;;;;;;;9.79;100.00;101156.97;5291517;28;20029;-84
2022/01/03 00:49:40;;;;;;;19.42;4.85;;;;;;;9.72;100.00;101150.47;5292541;28;20029;-85
2022/01/03 00:52:12;;;;;;;22.23;5.30;;;;;;;9.79;100.00;101125.00;5292697;28;22103;-85
2022/01/03 00:54:43;;;;;;;16.70;3.95;;;;;;;9.72;100.00;101143.31;5290139;28;20074;-85
2022/01/03 00:57:23;;;;;;;17.83;4.55;;;;;;;9.78;100.00;101152.59;5293431;28;20025;-85
2022/01/03 01:00:07;;;;;;;21.52;5.47;;;;;;;9.80;100.00;101150.66;5292885;28;20056;-84
2022/01/03 01:02:56;;;;;;;24.40;4.93;;;;;;;9.76;100.00;101152.72;5282110;28;20036;-83
2022/01/03 01:05:28;;;;;;;25.20;5.15;;;;;;;9.72;100.00;101151.31;5282598;28;20136;-85
2022/01/03 01:07:59;;;;;;;33.20;6.18;;;;;;;9.67;100.00;101144.69;5285800;28;20036;-85
2022/01/03 01:10:35;;;;;;;18.05;5.05;;;;;;;9.72;100.00;101148.66;5285226;28;20092;-85
2022/01/03 01:13:11;;;;;;;18.13;4.80;;;;;;;9.64;100.00;101143.97;5277716;28;20017;-86
2022/01/03 01:15:42;;;;;;;15.32;3.83;;;;;;;9.56;100.00;101143.78;5294598;28;20125;-83
2022/01/03 01:18:14;;;;;;;21.63;5.78;;;;;;;9.63;100.00;101147.59;5303306;28;20204;-83
2022/01/03 01:20:45;;;;;;;16.70;4.68;;;;;;;9.62;100.00;101156.59;5288717;28;20021;-84
2022/01/03 01:23:17;;;;;;;24.73;5.57;;;;;;;9.61;100.00;101159.38;5283379;28;20037;-86
2022/01/03 01:28:19;;;;;;;24.95;7.20;;;;;;;9.72;100.00;101163.78;5282108;28;20048;-84
2022/01/03 01:30:54;;;;;;;25.73;5.88;;;;;;;9.59;100.00;101167.50;5282225;28;20530;-85
2022/01/03 01:33:30;;;;;;;27.25;5.63;;;;;;;9.59;100.00;101182.59;5286903;28;20075;-85
2022/01/03 01:36:03;;;;;;;15.68;5.75;;;;;;;9.57;100.00;101184.56;5290212;28;20029;-84
2022/01/03 01:38:38;;;;;;;21.08;6.00;;;;;;;9.70;100.00;101195.88;5284637;28;20047;-85
2022/01/03 01:41:09;;;;;;;26.20;6.68;;;;;;;9.69;100.00;101194.19;5275365;28;20022;-84
2022/01/03 01:43:46;;;;;;;24.73;4.95;;;;;;;9.49;100.00;101197.69;5278583;28;20549;-85
2022/01/03 01:46:18;;;;;;;;;;;;;;;9.60;100.00;101192.28;5282596;28;20037;-85
2022/01/03 01:48:51;;;;;;;33.08;6.30;;;;;;;9.50;100.00;101202.00;5278102;28;20378;-85
2022/01/03 01:51:24;;;;;;;26.85;6.32;;;;;;;9.48;100.00;101188.00;5274317;28;20034;-83
2022/01/03 01:53:56;;;;;;;24.50;4.80;;;;;;;9.38;100.00;101193.22;5284402;28;21652;-84
2022/01/03 01:56:39;;;;;;;22.30;5.45;;;;;;;9.31;100.00;101179.59;5279886;28;20025;-85
2022/01/03 01:59:21;;;;;;;23.60;4.90;;;;;;;9.20;100.00;101192.91;5279549;28;20029;-85
2022/01/03 02:02:07;;;;;;;27.85;5.30;;;;;;;9.05;100.00;101182.53;5281745;28;20037;-84
2022/01/03 02:04:47;;;;;;;20.90;4.72;;;;;;;9.12;100.00;101193.53;5283578;28;20064;-84
2022/01/03 02:07:36;;;;;;;21.90;5.88;;;;;;;9.15;100.00;101180.00;5284192;28;20053;-85
2022/01/03 02:10:09;;;;;;;21.55;4.45;;;;;;;9.09;100.00;101196.44;5280272;28;20090;-86
2022/01/03 02:12:42;;;;;;;27.85;5.45;;;;;;;9.13;100.00;101221.81;5284415;28;20057;-84
2022/01/03 02:15:16;;;;;;;24.27;5.03;;;;;;;9.03;100.00;101196.97;5284929;28;20479;-84
2022/01/03 02:17:48;;;;;;;22.50;5.18;;;;;;;9.10;100.00;101192.81;5293308;28;20035;-84
2022/01/03 02:20:23;;;;;;;28.55;5.80;;;;;;;9.15;100.00;101203.94;5292501;28;20474;-85
2022/01/03 02:22:55;;;;;;;24.15;5.28;;;;;;;9.05;100.00;101203.84;5295238;28;20078;-84
2022/01/03 02:25:26;;;;;;;25.45;5.30;;;;;;;8.95;100.00;101210.84;5284439;28;20033;-84
2022/01/03 02:27:59;;;;;;;22.75;4.72;;;;;;;8.94;100.00;101198.53;5282260;28;20023;-85
2022/01/03 02:30:33;;;;;;;22.80;4.75;;;;;;;8.97;100.00;101192.13;5272997;28;20109;-85
2022/01/03 02:33:05;;;;;;;24.23;5.15;;;;;;;8.92;100.00;101192.47;5271368;28;20029;-85
2022/01/03 02:35:39;;;;;;;25.50;5.10;;;;;;;8.93;100.00;101199.50;5274676;28;20100;-85
2022/01/03 02:38:10;;;;;;;22.02;5.88;;;;;;;8.93;100.00;101198.66;5305952;28;20040;-85
2022/01/03 02:40:41;;;;;;;24.30;5.45;;;;;;;8.94;100.00;101193.22;5271608;28;20433;-85
2022/01/03 02:43:13;;;;;;;23.08;5.18;;;;;;;8.92;100.00;101204.94;5283163;28;20030;-85
2022/01/03 02:45:44;;;;;;;26.17;5.40;;;;;;;8.91;100.00;101197.94;5276927;28;20056;-87
2022/01/03 02:48:16;;;;;;;25.00;5.40;;;;;;;9.05;100.00;101201.16;5275477;28;20029;-85
2022/01/03 02:50:47;;;;;;;27.92;5.10;;;;;;;9.04;100.00;101195.97;5278211;28;20084;-85
2022/01/03 02:53:19;;;;;;;23.67;4.60;;;;;;;8.94;100.00;101195.88;5280715;28;20040;-85
2022/01/03 02:55:51;;;;;;;24.17;4.95;;;;;;;9.03;100.00;101196.97;5280934;28;20117;-85
2022/01/03 02:58:22;;;;;;;19.73;4.97;;;;;;;9.04;100.00;101202.13;5278374;28;20025;-84
2022/01/03 03:00:53;;;;;;;21.45;4.32;;;;;;;9.02;100.00;101195.25;5275300;28;20044;-85
2022/01/03 03:03:25;;;;;;;30.80;6.50;;;;;;;9.02;100.00;101200.56;5281141;28;20557;-84
2022/01/03 03:05:58;;;;;;;23.95;4.55;;;;;;;8.92;100.00;101195.13;5280307;28;20037;-85
2022/01/03 03:08:30;;;;;;;22.23;4.75;;;;;;;8.84;100.00;101195.75;5279009;28;20079;-85
2022/01/03 03:11:02;;;;;;;29.33;5.68;;;;;;;9.00;100.00;101199.84;5284425;28;20016;-84
2022/01/03 03:13:34;;;;;;;28.30;5.63;;;;;;;8.93;100.00;101206.63;5280401;28;20115;-85
2022/01/03 03:16:05;;;;;;;21.65;6.18;;;;;;;8.91;100.00;101201.44;5283343;28;20020;-85
2022/01/03 03:18:36;;;;;;;22.33;4.72;;;;;;;8.95;100.00;101207.34;5289046;28;20036;-84
2022/01/03 03:21:08;;;;;;;27.30;5.72;;;;;;;9.05;100.00;101201.16;5287740;28;20047;-85
2022/01/03 03:23:39;;;;;;;24.35;4.97;;;;;;;8.99;100.00;101222.94;5285701;28;20087;-85
2022/01/03 03:26:11;;;;;;;29.30;5.55;;;;;;;9.08;100.00;101208.03;5286943;28;20770;-85
2022/01/03 03:28:43;;;;;;;29.52;5.05;;;;;;;9.07;100.00;101209.03;5277688;28;20503;-85
2022/01/03 03:31:15;;;;;;;25.98;4.70;;;;;;;9.19;100.00;101232.00;5281397;28;20041;-85
2022/01/03 03:33:46;;;;;;;25.63;4.93;;;;;;;9.35;100.00;101206.78;5285801;28;20040;-85
2022/01/03 03:36:17;;;;;;;22.65;4.60;;;;;;;9.34;100.00;101226.38;5272778;28;20188;-85
2022/01/03 03:38:49;;;;;;;32.60;5.90;;;;;;;9.35;100.00;101204.97;5271497;28;20028;-85
2022/01/03 03:41:20;;;;;;;28.80;5.63;;;;;;;9.41;100.00;101211.59;5281297;28;20063;-85
2022/01/03 03:43:51;;;;;;;24.92;5.38;;;;;;;9.38;100.00;101199.41;5284078;28;20496;-85
2022/01/03 03:46:23;;;;;;;25.88;4.47;;;;;;;9.35;100.00;101204.97;5280121;28;20021;-86
2022/01/03 03:48:55;;;;;;;25.13;5.53;;;;;;;9.22;100.00;101199.81;5282434;28;20029;-85
2022/01/03 03:51:28;;;;;;;28.42;5.40;;;;;;;9.32;100.00;101205.22;5285167;28;20033;-84
2022/01/03 03:53:59;;;;;;;28.65;6.03;;;;;;;9.26;100.00;101198.59;5280051;28;20104;-85
2022/01/03 03:56:30;;;;;;;32.25;6.40;;;;;;;9.14;100.00;101193.41;5286284;28;20462;-85
2022/01/03 03:59:02;;;;;;;20.35;4.00;;;;;;;9.11;100.00;101196.31;5282234;28;20418;-85
2022/01/03 04:01:33;;;;;;;31.35;7.22;;;;;;;9.17;100.00;101199.34;5277324;28;20066;-84
2022/01/03 04:04:04;;;;;;;26.15;5.15;;;;;;;9.16;100.00;101199.47;5280258;28;20127;-84
2022/01/03 04:06:36;;;;;;;25.73;5.78;;;;;;;9.19;100.00;101193.91;5282769;28;20017;-85
2022/01/03 04:09:07;;;;;;;29.48;5.68;;;;;;;9.19;100.00;101199.22;5283225;28;20025;-86
2022/01/03 04:11:39;;;;;;;28.63;5.35;;;;;;;9.25;100.00;101182.72;5273228;28;20393;-85
2022/01/03 04:14:10;;;;;;;21.55;4.70;;;;;;;9.26;100.00;101192.41;5278588;28;20049;-85
2022/01/03 04:16:42;;;;;;;36.28;6.82;;;;;;;9.27;100.00;101180.78;5281759;28;20038;-85
2022/01/03 04:19:14;;;;;;;26.23;5.30;;;;;;;9.38;100.00;101187.88;5276778;28;20040;-85
2022/01/03 04:21:45;;;;;;;34.40;6.32;;;;;;;9.35;100.00;101172.19;5297200;28;20024;-85
2022/01/03 04:24:16;;;;;;;27.73;5.47;;;;;;;9.40;100.00;101176.16;5291186;28;20032;-85
2022/01/03 04:26:49;;;;;;;26.65;4.22;;;;;;;9.33;100.00;101177.63;5287020;28;20108;-85
2022/01/03 04:29:21;;;;;;;28.10;4.60;;;;;;;9.28;100.00;101171.84;5304181;28;20037;-84
2022/01/03 04:31:53;;;;;;;27.05;4.75;;;;;;;9.30;100.00;101175.22;5291246;28;20340;-84
2022/01/03 04:34:24;;;;;;;29.88;5.60;;;;;;;9.31;100.00;101165.41;5299267;28;20025;-85
2022/01/03 04:36:56;;;;;;;27.90;5.30;;;;;;;9.26;100.00;101163.97;5270222;28;20036;-85
2022/01/03 04:39:27;;;;;;;29.50;5.88;;;;;;;9.34;100.00;101160.69;5297542;28;20048;-85
2022/01/03 04:41:58;;;;;;;31.75;5.47;;;;;;;9.46;100.00;101175.63;5286468;28;20017;-83
2022/01/03 04:44:31;;;;;;;30.27;5.50;;;;;;;9.48;100.00;101172.00;5293992;28;20182;-83
2022/01/03 04:47:02;;;;;;;24.48;5.35;;;;;;;9.50;100.00;101172.72;5281971;28;20028;-84
2022/01/03 04:49:34;;;;;;;26.30;5.38;;;;;;;9.50;100.00;101168.22;5276916;28;20477;-83
2022/01/03 04:52:05;;;;;;;28.88;5.03;;;;;;;9.53;100.00;101167.16;5287249;28;20112;-84
2022/01/03 04:54:37;;;;;;;25.40;4.63;;;;;;;9.51;100.00;101158.44;5294697;28;20021;-83
2022/01/03 04:57:08;;;;;;;23.67;4.72;;;;;;;9.45;100.00;101157.97;5288516;28;20036;-83
2022/01/03 04:59:39;;;;;;;31.83;5.50;;;;;;;9.50;100.00;101165.56;5290770;28;20029;-83
2022/01/03 05:02:11;;;;;;;25.92;5.10;;;;;;;9.48;100.00;101162.19;5295268;28;20136;-84
2022/01/03 05:04:42;;;;;;;30.80;5.20;;;;;;;9.57;100.00;101173.91;5307636;28;20037;-84
2022/01/03 05:07:14;;;;;;;25.75;5.53;;;;;;;9.50;100.00;101160.25;5303714;28;20044;-83
2022/01/03 05:09:45;;;;;;;28.98;5.57;;;;;;;9.59;100.00;101159.50;5305254;28;20040;-83
2022/01/03 05:12:17;;;;;;;29.75;4.65;;;;;;;9.52;100.00;101162.78;5294214;28;20429;-83
2022/01/03 05:14:48;;;;;;;28.25;5.95;;;;;;;9.53;100.00;101156.50;5294566;28;20025;-83
2022/01/03 05:17:19;;;;;;;28.60;5.32;;;;;;;9.50;100.00;101151.41;5299932;28;20044;-84
2022/01/03 05:19:51;;;;;;;28.83;5.15;;;;;;;9.45;100.00;101146.50;5301570;28;20029;-84
2022/01/03 05:22:22;;;;;;;26.90;5.43;;;;;;;9.43;100.00;101145.75;5287743;28;20030;-83
2022/01/03 05:24:53;;;;;;;25.40;5.35;;;;;;;9.46;100.00;101143.69;5306214;28;20439;-83
2022/01/03 05:27:25;;;;;;;27.48;6.05;;;;;;;9.35;100.00;101143.75;5291796;28;20028;-85
2022/01/03 05:29:56;;;;;;;35.55;5.95;;;;;;;9.35;100.00;101143.75;5288616;28;20359;-84
2022/01/03 05:32:28;;;;;;;29.70;5.47;;;;;;;9.48;100.00;101146.22;5303521;28;20032;-85
2022/01/03 05:34:59;;;;;;;25.17;4.85;;;;;;;9.48;100.00;101145.38;5287481;28;20076;-84
2022/01/03 05:37:30;;;;;;;26.20;5.63;;;;;;;9.52;100.00;101136.16;5290863;28;20043;-85
2022/01/03 05:40:03;;;;;;;25.58;5.05;;;;;;;9.53;100.00;101149.34;5289043;28;20040;-85
2022/01/03 05:42:34;;;;;;;21.10;3.45;;;;;;;9.54;100.00;101144.88;5284962;28;20017;-84
2022/01/03 05:45:06;;;;;;;25.23;5.05;;;;;;;9.45;100.00;101131.34;5293483;28;20021;-84
2022/01/03 05:47:39;;;;;;;26.40;4.80;;;;;;;9.44;100.00;101131.47;5296809;28;20033;-83
2022/01/03 05:50:13;;;;;;;26.20;4.32;;;;;;;9.40;100.00;101128.22;5299092;28;20123;-85
2022/01/03 05:52:44;;;;;;;21.77;4.13;;;;;;;9.44;100.00;101120.84;5298294;28;20090;-84
2022/01/03 05:55:17;;;;;;;25.73;4.28;;;;;;;9.49;100.00;101123.13;5293587;28;20025;-84
2022/01/03 05:57:48;;;;;;;30.90;4.22;;;;;;;9.35;100.00;101113.63;5294751;28;20024;-84
2022/01/03 06:00:20;;;;;;;26.35;5.07;;;;;;;9.35;100.00;101118.94;5306025;28;20476;-85
2022/01/03 06:02:57;;;;;;;27.40;5.30;;;;;;;9.25;100.00;101117.03;5295936;28;20075;-86
2022/01/03 06:08:08;;;;;;;28.00;4.97;;;;;;;9.29;100.00;101122.94;5296868;28;19939;-85
2022/01/03 06:10:41;;;;;;;28.48;5.82;;;;;;;9.28;100.00;101127.44;5306969;28;20029;-86
2022/01/03 06:13:12;;;;;;;31.92;5.15;;;;;;;9.25;100.00;101109.03;5301716;28;20040;-86
2022/01/03 06:15:44;;;;;;;22.60;4.38;;;;;;;9.22;100.00;101109.31;5311026;28;20099;-84
2022/01/03 06:18:18;;;;;;;24.40;3.75;;;;;;;9.17;100.00;101115.97;5296020;28;20040;-84
2022/01/03 06:20:49;;;;;;;22.38;3.50;;;;;;;9.15;100.00;101112.59;5293309;28;20033;-85
2022/01/03 06:23:21;;;;;;;28.02;5.45;;;;;;;9.14;100.00;101119.75;5297214;28;20098;-85
2022/01/03 06:25:52;;;;;;;18.77;4.03;;;;;;;9.11;100.00;101117.31;5287687;28;20032;-85
2022/01/03 06:28:23;;;;;;;18.98;3.92;;;;;;;9.04;100.00;101116.13;5286743;28;20021;-85
2022/01/03 06:30:55;;;;;;;25.80;4.93;;;;;;;9.04;100.00;101116.13;5287380;28;20121;-83
2022/01/03 06:33:26;;;;;;;21.48;3.97;;;;;;;8.98;100.00;101109.50;5289146;28;20021;-85
2022/01/03 06:35:57;;;;;;;30.52;5.00;;;;;;;9.01;100.00;101113.72;5295850;28;20036;-85
2022/01/03 06:38:29;;;;;;;22.35;3.92;;;;;;;9.08;100.00;101125.56;5290063;28;20048;-85
2022/01/03 06:41:00;;;;;;;22.90;3.70;;;;;;;9.03;100.00;101111.81;5281105;28;20036;-85
2022/01/03 06:43:31;;;;;;;29.75;4.65;;;;;;;8.94;100.00;101110.75;5282552;28;20089;-85
2022/01/03 06:46:02;;;;;;;19.35;4.60;;;;;;;8.87;100.00;101114.84;5294559;28;20048;-85
2022/01/03 06:48:34;;;;;;;28.35;4.95;;;;;;;8.78;100.00;101129.75;5282742;28;20024;-85
2022/01/03 06:51:05;;;;;;;25.35;4.03;;;;;;;8.78;100.00;101111.13;5281179;28;20013;-85
2022/01/03 06:53:37;;;;;;;20.40;4.63;;;;;;;8.74;100.00;101120.31;5282739;28;20017;-86
2022/01/03 06:56:08;;;;;;;25.48;4.75;;;;;;;8.73;100.00;101113.34;5282252;28;20025;-85
2022/01/03 06:58:42;;;;;;;22.55;3.92;;;;;;;8.81;100.00;101118.03;5281833;28;20044;-86
2022/01/03 07:01:14;;;;;;;23.25;3.92;;;;;;;8.68;100.00;101113.69;5259976;28;20010;-84
2022/01/03 07:03:45;;;;;;;22.17;4.13;;;;;;;8.63;100.00;101115.88;5312938;28;20041;-84
2022/01/03 07:06:16;;;;;;;17.63;4.32;;;;;;;8.59;100.00;101119.75;5282337;28;20037;-85
2022/01/03 07:08:48;;;;;;;25.60;4.78;;;;;;;8.59;100.00;101111.78;5282179;28;20055;-85
2022/01/03 07:11:20;;;;;;;20.63;4.45;;;;;;;8.60;100.00;101113.44;5282117;28;20047;-85
2022/01/03 07:14:03;;;;;;;27.38;4.57;;;;;;;8.55;100.00;101106.81;5282131;28;20455;-83
2022/01/03 07:19:24;;;;;;;22.17;5.03;;;;;;;8.62;100.00;101118.66;5285756;28;20033;-84
2022/01/03 07:21:56;;;;;;;22.02;4.50;;;;;;;8.64;100.00;101096.31;5281722;28;20466;-84
2022/01/03 07:24:27;;;;;;;21.73;3.55;;;;;;;8.64;100.00;101104.28;5293203;28;20426;-84
2022/01/03 07:27:04;;;;;;;20.00;4.20;;;;;;;8.60;100.00;101118.78;5282263;28;20033;-84
2022/01/03 07:29:35;;;;;;;;;;;;;;;8.56;100.00;101120.00;5290169;28;20036;-85
2022/01/03 07:32:07;;;;;;;24.60;5.38;;;;;;;8.53;100.00;101112.25;5285360;28;20370;-84
2022/01/03 07:34:39;;;;;;;23.27;4.45;;;;;;;8.46;100.00;101114.56;5297600;28;20107;-85
2022/01/03 07:37:10;;;;;;;22.20;4.10;;;;;;;8.49;100.00;101111.66;5285215;28;20025;-84
2022/01/03 07:39:42;;;;;;;19.52;4.55;;;;;;;8.56;100.00;101111.19;5297027;28;20025;-84
2022/01/03 07:42:13;;;;;;;26.52;3.90;;;;;;;8.65;100.00;101116.59;5288005;28;20067;-84
2022/01/03 07:44:44;;;;;;;23.73;5.15;;;;;;;8.73;100.00;101117.78;5288519;28;20041;-85
2022/01/03 07:47:16;;;;;;;17.65;4.22;;;;;;;8.78;100.00;101113.78;5284006;28;20029;-85
2022/01/03 07:49:47;;;;;;;23.55;4.43;;;;;;;8.79;100.00;101110.16;5296038;28;20074;-83
2022/01/03 07:52:18;;;;;;;16.80;3.70;;;;;;;8.82;100.00;101117.91;5305850;28;20107;-83
2022/01/03 07:54:52;;;;;;;20.33;3.95;;;;;;;8.87;100.00;101118.38;5297230;28;20054;-84
2022/01/03 07:57:23;;;;;;;23.95;4.90;;;;;;;8.89;100.00;101116.44;5284728;28;20362;-84
2022/01/03 07:59:55;;;;;;;25.67;5.47;;;;;;;8.88;100.00;101130.69;5286646;28;20037;-85
2022/01/03 08:02:28;;;;;;;23.15;3.63;;;;;;;8.91;100.00;101129.63;5281984;28;20024;-85
2022/01/03 08:05:00;;;;;;;23.58;4.15;;;;;;;8.94;100.00;101125.84;5285632;28;20040;-87
2022/01/03 08:07:31;;;;;;;22.50;3.90;;;;;;;8.95;100.00;101103.59;5290802;28;20059;-84
2022/01/03 08:10:05;;;;;;;17.55;3.55;;;;;;;8.92;100.00;101117.16;5293596;28;20029;-85
2022/01/03 08:12:39;;;;;;;22.33;4.43;;;;;;;8.93;100.00;101114.38;5296570;28;20429;-84
2022/01/03 08:15:10;;;;;;;23.77;3.92;;;;;;;8.92;100.00;101122.47;5292242;28;20029;-86
2022/01/03 08:17:46;;;;;;;22.85;4.75;;;;;;;8.94;100.00;101124.03;5294121;28;20147;-85
2022/01/03 08:20:19;;;;;;;18.85;4.03;;;;;;;8.85;100.00;101114.13;5295579;28;20025;-85
2022/01/03 08:22:52;;;;;;;23.73;3.92;;;;;;;8.93;100.00;101121.50;5297139;28;20021;-84
2022/01/03 08:25:23;;;;;;;18.23;3.58;;;;;;;8.98;100.00;101119.31;5291818;28;20025;-84
2022/01/03 08:27:54;;;;;;;23.77;4.00;;;;;;;9.02;100.00;101115.44;5297018;28;20378;-84
2022/01/03 08:30:26;;;;;;;25.35;4.13;;;;;;;9.02;100.00;101118.94;5302960;28;20017;-85
2022/01/03 08:32:57;;;;;;;27.58;5.22;;;;;;;9.07;100.00;101123.88;5302600;28;20201;-85
2022/01/03 08:35:29;;;;;;;24.52;4.55;;;;;;;9.08;100.00;101104.25;5284058;28;20121;-84
2022/01/03 08:38:04;;;;;;;20.67;4.55;;;;;;;9.12;100.00;101103.06;5293289;28;20040;-85
2022/01/03 08:40:35;;;;;;;23.63;3.78;;;;;;;9.20;100.00;101111.28;5283939;28;20037;-85
2022/01/03 08:43:06;;;;;;;17.02;4.05;;;;;;;9.23;100.00;101096.84;5317379;27;20079;-84
2022/01/03 08:45:37;;;;;;;16.48;3.65;;;;;;;9.28;100.00;101108.78;5278568;28;20029;-84
2022/01/03 08:48:09;;;;;;;19.48;3.88;;;;;;;9.21;100.00;101099.63;5283700;28;20434;-85
2022/01/03 08:50:43;;;;;;;23.40;3.80;;;;;;;9.23;100.00;101115.47;5286720;28;20408;-84
2022/01/03 08:53:15;;;;;;;24.27;4.40;;;;;;;9.28;100.00;101126.59;5281220;28;20479;-86
2022/01/03 08:55:46;;;;;;;25.15;4.45;;;;;;;9.35;100.00;101124.28;5294778;28;20021;-86
2022/01/03 08:58:18;;;;;;;18.05;4.13;;;;;;;9.34;100.00;101117.25;5301609;28;20041;-86
2022/01/03 09:00:50;;;;;;;18.15;3.53;;;;;;;9.35;100.00;101132.25;5290359;28;20029;-86
2022/01/03 09:03:22;;;;;;;18.90;3.95;;;;;;;9.35;100.00;101142.91;5275966;28;20045;-85
2022/01/03 09:05:54;;;;;;;17.52;3.50;;;;;;;9.43;100.00;101128.00;5279147;28;20024;-85
2022/01/03 09:08:25;;;;;;;22.10;3.97;;;;;;;9.52;100.00;101136.16;5280054;28;20101;-84
2022/01/03 09:10:57;;;;;;;20.95;4.05;;;;;;;9.58;100.00;101109.03;5285487;28;20617;-84
2022/01/03 09:13:28;;;;;;;19.33;3.47;;;;;;;9.77;100.00;101122.47;5281930;28;20037;-83
2022/01/03 09:16:04;;;;;;;21.17;4.43;;;;;;;9.91;100.00;101128.44;5266013;28;20033;-83
2022/01/03 09:18:38;;;;;;;20.88;4.07;;;;;;;10.06;100.00;101118.28;5275519;28;20045;-82
2022/01/03 09:21:10;;;;;;;23.75;4.00;;;;;;;10.03;100.00;101122.06;5271955;28;20708;-82
2022/01/03 09:23:46;;;;;;;23.55;5.32;;;;;;;9.99;100.00;101126.81;5289664;28;20025;-83
2022/01/03 09:29:08;;;;;;;22.75;3.92;;;;;;;9.94;100.00;101121.03;5270519;28;20434;-83
2022/01/03 09:31:39;;;;;;;23.33;4.70;;;;;;;9.99;100.00;101108.16;5291120;28;20043;-83
2022/01/03 09:34:11;;;;;;;25.42;5.00;;;;;;;9.91;100.00;101102.66;5304948;28;20012;-83
2022/01/03 09:36:42;;;;;;;23.58;3.90;;;;;;;9.87;100.00;101092.38;5305474;28;20029;-83
2022/01/03 09:39:14;;;;;;;22.25;4.38;;;;;;;9.95;100.00;101097.91;5308954;28;20028;-85
2022/01/03 09:41:57;;;;;;;21.88;4.35;;;;;;;9.92;100.00;101087.50;5311405;28;20015;-85
2022/01/03 09:44:31;;;;;;;21.05;3.70;;;;;;;9.95;100.00;101098.72;5305821;28;20062;-85
2022/01/03 09:47:05;;;;;;;22.83;3.83;;;;;;;10.02;100.00;101101.72;5296767;28;20569;-86
2022/01/03 09:49:38;;;;;;;22.58;4.28;;;;;;;10.08;100.00;101103.00;5315599;28;20035;-85
2022/01/03 09:52:10;;;;;;;24.83;3.97;;;;;;;10.12;100.00;101091.13;5305662;28;20024;-85
2022/01/03 09:54:44;;;;;;;25.85;4.47;;;;;;;10.14;100.00;101100.66;5297391;28;20048;-87
2022/01/03 09:57:19;;;;;;;19.88;4.35;;;;;;;10.10;100.00;101103.69;5272298;28;20042;-85
2022/01/03 09:59:50;;;;;;;30.17;5.45;;;;;;;10.10;100.00;101082.38;5268429;28;20107;-84
2022/01/03 10:02:22;;;;;;;29.92;5.53;;;;;;;10.13;100.00;101088.31;5270138;28;20021;-85
2022/01/03 10:04:54;;;;;;;24.73;4.72;;;;;;;10.17;100.00;101083.56;5271422;28;20740;-84
2022/01/03 10:07:27;;;;;;;19.98;4.10;;;;;;;10.26;100.00;101100.56;5284093;28;20052;-83
2022/01/03 10:10:03;;;;;;;21.65;4.50;;;;;;;10.20;100.00;101089.47;5284895;28;20471;-83
2022/01/03 10:12:36;;;;;;;23.67;5.43;;;;;;;10.26;100.00;101090.75;5282278;28;20036;-84
2022/01/03 10:15:08;;;;;;;23.52;4.78;;;;;;;10.28;100.00;101082.63;5282895;28;20025;-84
2022/01/03 10:17:41;;;;;;;15.25;3.72;;;;;;;10.41;100.00;101080.56;5281793;28;20045;-84
2022/01/03 10:20:14;;;;;;;23.85;4.35;;;;;;;10.37;100.00;101092.50;5282797;28;20021;-84
2022/01/03 10:22:45;;;;;;;22.25;4.50;;;;;;;10.39;100.00;101093.19;5279100;28;20029;-83
2022/01/03 10:25:20;;;;;;;18.10;4.85;;;;;;;10.31;100.00;101098.31;5312912;28;20021;-82
2022/01/03 10:27:54;;;;;;;17.67;4.43;;;;;;;10.34;100.00;101085.63;5273396;28;20052;-85
2022/01/03 10:30:40;;;;;;;18.80;4.03;;;;;;;10.32;100.00;101082.22;5304574;28;20765;-84
2022/01/03 10:33:17;;;;;;;19.48;3.97;;;;;;;10.30;100.00;101100.16;5275364;28;20090;-84
2022/01/03 10:35:55;;;;;;;21.75;4.10;;;;;;;10.34;100.00;101074.97;5265424;28;20056;-84
2022/01/03 10:38:37;;;;;;;16.85;4.03;;;;;;;10.32;100.00;101082.22;5263487;28;20033;-83
2022/01/03 10:41:19;;;;;;;23.88;3.92;;;;;;;10.32;100.00;101070.72;5275059;28;20021;-84
2022/01/03 10:43:56;;;;;;;21.23;4.43;;;;;;;10.34;100.00;101074.09;5269090;28;20116;-84
2022/01/03 10:46:30;;;;;;;17.98;4.20;;;;;;;10.37;100.00;101063.16;5275312;28;20620;-84
2022/01/03 10:49:16;;;;;;;20.50;4.10;;;;;;;10.45;100.00;101079.34;5275484;28;20443;-84
2022/01/03 10:51:48;;;;;;;19.38;3.72;;;;;;;10.47;100.00;101053.38;5266702;28;20853;-84
2022/01/03 10:54:19;;;;;;;17.27;4.70;;;;;;;10.45;100.00;101058.00;5272637;28;20040;-84
2022/01/03 10:56:53;;;;;;;14.98;3.13;;;;;;;10.58;100.00;101053.25;5267236;28;20057;-85
2022/01/03 10:59:28;;;;;;;21.33;3.75;;;;;;;10.62;100.00;101035.16;5268190;28;41485;-85
2022/01/03 11:02:01;;;;;;;18.80;3.95;;;;;;;10.68;100.00;101034.59;5276004;28;20029;-83
2022/01/03 11:13:07;;;;;;;15.65;4.00;;;;;;;11.18;100.00;101016.78;5277001;28;20060;-84
2022/01/03 11:15:49;;;;;;;19.80;4.03;;;;;;;11.86;100.00;100996.06;5281524;28;20029;-84
2022/01/03 11:18:29;;;;;;;21.05;4.13;;;;;;;12.26;100.00;100996.75;5281515;28;20042;-84
2022/01/03 11:21:19;;;;;;;22.38;3.55;;;;;;;12.02;100.00;101002.66;5280613;28;20371;-82
2022/01/03 11:24:09;;;;;;;16.40;3.42;;;;;;;11.67;100.00;100996.13;5290601;28;20309;-85
2022/01/03 11:26:49;;;;;;;23.35;4.65;;;;;;;11.58;100.00;100994.34;5280145;28;20033;-84
2022/01/03 11:29:20;;;;;;;22.60;4.05;;;;;;;11.91;100.00;100999.16;5276903;28;20032;-85
2022/01/03 11:31:54;;;;;;;24.15;4.28;;;;;;;11.85;100.00;101010.44;5280646;28;20079;-84
2022/01/03 11:34:25;;;;;;;21.48;4.65;;;;;;;11.30;100.00;100994.28;5282011;28;20037;-83
2022/01/03 11:36:58;;;;;;;19.00;3.60;;;;;;;11.12;100.00;100997.66;5281825;28;20037;-84
2022/01/03 11:39:34;;;;;;;19.52;4.07;;;;;;;10.88;100.00;100999.94;5287867;28;20568;-84
2022/01/03 11:42:06;;;;;;;19.05;3.95;;;;;;;10.63;100.00;100985.31;5288090;28;20021;-84
2022/01/03 11:44:40;;;;;;;19.55;3.90;;;;;;;10.60;100.00;100987.25;5281923;28;20156;-84
2022/01/03 11:47:12;;;;;;;16.67;3.60;;;;;;;10.48;100.00;100977.72;5291989;28;20025;-84
2022/01/03 11:49:44;;;;;;;18.30;3.42;;;;;;;10.44;100.00;100991.47;5291190;28;20489;-85
2022/01/03 11:52:15;;;;;;;22.52;3.60;;;;;;;10.27;100.00;100968.94;5290961;28;20025;-84
2022/01/03 11:54:48;;;;;;;14.25;4.03;;;;;;;10.18;100.00;100958.13;5284152;28;20037;-84
2022/01/03 11:57:45;;;;;;;16.73;3.58;;;;;;;10.15;100.00;100958.41;5276265;28;20106;-84
2022/01/03 12:06:05;;;;;;;14.32;3.72;;;;;;;10.26;100.00;100944.13;5268395;28;20451;-84
2022/01/03 12:08:38;;;;;;;16.38;3.30;;;;;;;10.30;100.00;100952.69;5274646;28;20021;-83